createdAt,value
2023-04-03T05:07:14.805Z,0.60
2023-04-03T05:12:19.189Z,0.60
2023-04-03T05:17:25.295Z,0.70
2023-04-03T05:22:30.524Z,0.70
2023-04-03T05:27:35.715Z,0.98
2023-04-03T05:32:41.113Z,1.05
2023-04-03T05:37:45.685Z,0.62
2023-04-03T05:42:51.220Z,1.08
2023-04-03T05:47:56.969Z,1.17
2023-04-03T05:53:02.216Z,1.17
2023-04-03T05:58:08.001Z,0.90
2023-04-03T06:03:14.300Z,0.88
2023-04-03T06:08:19.747Z,1.02
2023-04-03T06:18:29.628Z,0.85
2023-04-03T06:23:33.907Z,1.00
2023-04-03T06:28:38.464Z,0.88
2023-04-03T06:33:43.449Z,1.30
2023-04-03T06:38:47.477Z,1.27
2023-04-03T06:43:51.843Z,1.10
2023-04-03T06:59:05.065Z,1.70
2023-04-03T07:04:10.475Z,0.88
2023-04-03T09:23:47.820Z,1.75
2023-04-03T09:28:52.983Z,1.50
2023-04-03T09:34:01.944Z,1.55
2023-04-03T09:39:09.013Z,1.35
2023-04-03T09:44:24.616Z,1.48
2023-04-03T09:49:28.758Z,1.83
2023-04-03T09:54:41.069Z,1.25
2023-04-03T09:59:59.043Z,1.48
2023-04-03T10:10:23.769Z,1.60
2023-04-03T10:15:32.208Z,1.27
2023-04-03T10:20:39.580Z,1.80
2023-04-03T10:25:52.453Z,1.70
2023-04-03T10:31:07.596Z,1.30
2023-04-03T10:36:20.258Z,1.50
2023-04-03T10:41:34.200Z,1.50
2023-04-03T10:46:41.195Z,1.33
2023-04-03T10:51:47.314Z,1.35
2023-04-03T10:57:08.406Z,1.33
2023-04-03T11:02:21.639Z,1.33
2023-04-03T11:07:28.929Z,1.40
2023-04-03T11:12:43.012Z,1.40
2023-04-03T11:17:52.263Z,1.27
2023-04-03T11:23:02.794Z,1.30
2023-04-03T11:28:14.071Z,1.37
2023-04-03T11:33:29.845Z,1.12
2023-04-03T11:38:40.492Z,1.30
2023-04-03T11:43:59.198Z,1.65
2023-04-03T11:49:03.194Z,1.33
2023-04-03T11:54:44.401Z,2.08
2023-04-03T11:59:50.681Z,1.90
2023-04-03T12:05:29.045Z,1.73
2023-04-03T12:10:33.028Z,1.70
2023-04-03T12:15:55.033Z,1.98
2023-04-03T12:21:00.567Z,2.00
2023-04-03T12:26:07.819Z,2.10
2023-04-03T12:31:13.723Z,2.60
2023-04-03T12:36:28.029Z,2.65
2023-04-03T12:41:39.761Z,1.87
2023-04-03T12:46:49.450Z,2.87
2023-04-03T12:51:54.682Z,2.08
2023-04-03T12:57:12.213Z,2.50
2023-04-03T13:02:29.214Z,2.30
2023-04-03T13:07:35.701Z,1.60
2023-04-03T13:12:49.064Z,1.95
2023-04-03T13:17:55.569Z,2.28
2023-04-03T13:23:03.742Z,1.50
2023-04-03T13:28:14.052Z,1.80
2023-04-03T13:33:26.188Z,1.98
2023-04-03T13:38:34.084Z,1.42
2023-04-03T13:43:41.329Z,2.10
2023-04-03T13:48:49.263Z,1.42
2023-04-03T13:53:56.092Z,1.77
2023-04-03T13:59:06.045Z,2.33
2023-04-03T14:04:19.476Z,1.77
2023-04-03T14:09:25.062Z,2.15
2023-04-03T14:14:31.691Z,2.08
2023-04-03T14:19:37.673Z,2.00
2023-04-03T14:24:41.408Z,1.92
2023-04-03T14:29:45.044Z,1.55
2023-04-03T14:34:52.129Z,1.77
2023-04-03T14:39:58.312Z,1.50
2023-04-03T14:45:02.869Z,2.15
2023-04-03T14:50:10.483Z,1.80
2023-04-03T14:55:16.725Z,2.05
2023-04-03T15:00:22.515Z,2.33
2023-04-03T15:05:27.595Z,1.75
2023-04-03T15:10:33.970Z,1.27
2023-04-03T15:15:39.252Z,1.70
2023-04-03T15:20:44.717Z,1.67
2023-04-03T15:25:51.198Z,2.40
2023-04-03T15:30:55.034Z,1.80
2023-04-03T15:36:11.863Z,1.85
2023-04-03T15:41:21.098Z,2.03
2023-04-03T15:46:25.189Z,2.20
2023-04-03T15:51:30.210Z,1.45
2023-04-03T15:56:33.855Z,2.08
2023-04-03T16:01:40.069Z,1.87
2023-04-03T16:06:45.359Z,2.10
2023-04-03T16:11:48.950Z,2.17
2023-04-03T16:16:52.950Z,1.30
2023-04-03T16:21:58.417Z,0.88
2023-04-03T16:27:02.074Z,1.17
2023-04-03T16:32:06.425Z,1.63
2023-04-03T16:37:11.528Z,0.88
2023-04-03T16:42:15.298Z,1.15
2023-04-03T16:47:20.256Z,1.17
2023-04-03T16:52:25.217Z,1.20
2023-04-03T16:57:29.332Z,1.00
2023-04-03T17:02:33.296Z,1.27
2023-04-03T17:07:38.299Z,1.23
2023-04-03T17:12:42.149Z,0.90
2023-04-03T17:17:46.135Z,0.80
2023-04-03T17:22:51.119Z,1.10
2023-04-03T17:27:54.997Z,1.10
2023-04-03T17:32:58.914Z,0.88
2023-04-03T17:38:04.807Z,0.65
2023-04-03T17:43:08.814Z,0.65
2023-04-03T17:48:13.179Z,1.37
2023-04-03T17:58:21.969Z,1.00
2023-04-03T18:03:25.845Z,1.15
2023-04-03T18:08:31.106Z,0.70
2023-04-03T18:13:37.533Z,0.90
2023-04-03T18:18:41.558Z,1.00
2023-04-03T18:23:50.265Z,1.30
2023-04-03T18:28:58.322Z,1.20
2023-04-03T18:34:02.425Z,0.90
2023-04-03T18:39:07.374Z,0.88
2023-04-03T18:44:16.170Z,1.08
2023-04-03T18:49:20.103Z,0.90
2023-04-03T18:54:25.470Z,0.73
2023-04-03T18:59:29.351Z,0.88
2023-04-03T19:04:33.494Z,0.88
2023-04-03T19:09:39.819Z,1.02
2023-04-03T19:14:43.798Z,1.08
2023-04-03T19:19:47.714Z,1.02
2023-04-03T19:24:52.625Z,1.08
2023-04-03T19:29:56.471Z,1.10
2023-04-03T19:35:00.162Z,1.20
2023-04-03T19:40:06.305Z,1.25
2023-04-03T19:45:12.042Z,1.45
2023-04-03T19:50:16.149Z,1.08
2023-04-03T19:55:21.078Z,1.35
2023-04-03T20:00:25.222Z,1.73
2023-04-03T20:05:28.913Z,1.67
2023-04-03T20:10:35.184Z,1.70
2023-04-03T20:15:41.304Z,1.75
2023-04-03T20:20:45.307Z,1.85
2023-04-03T20:26:05.981Z,1.75
2023-04-03T20:31:13.684Z,1.73
2023-04-03T20:41:22.644Z,1.90
2023-04-03T20:46:42.107Z,1.75
2023-04-03T20:51:52.690Z,1.87
2023-04-03T20:56:57.695Z,1.77
2023-04-03T21:02:01.575Z,2.20
2023-04-03T21:07:43.402Z,1.50
2023-04-03T21:13:25.489Z,1.67
2023-04-03T21:18:51.965Z,1.48
2023-04-03T21:23:56.549Z,1.73
2023-04-03T21:29:00.399Z,2.00
2023-04-03T21:34:05.700Z,2.28
2023-04-03T21:39:09.445Z,1.62
2023-04-03T21:44:13.012Z,1.63
2023-04-03T21:49:18.138Z,2.17
2023-04-03T21:54:22.330Z,1.87
2023-04-03T21:59:26.095Z,1.55
2023-04-03T22:04:31.193Z,1.73
2023-04-03T22:09:34.707Z,2.17
2023-04-03T22:14:38.878Z,2.00
2023-04-03T22:19:43.801Z,1.37
2023-04-03T22:24:47.321Z,1.37
2023-04-03T22:29:50.903Z,1.90
